createdAt,value
2018-11-22T00:01:58.766Z,17.85
2018-11-22T00:04:40.865Z,16.87
2018-11-22T00:07:22.324Z,17.57
2018-11-22T00:10:03.673Z,18.00
2018-11-22T00:12:45.149Z,16.93
2018-11-22T00:15:26.895Z,17.25
2018-11-22T00:18:08.030Z,18.65
2018-11-22T00:20:50.121Z,18.27
2018-11-22T00:23:31.256Z,18.80
2018-11-22T00:26:12.888Z,18.55
2018-11-22T00:28:54.437Z,17.80
2018-11-22T00:31:36.263Z,17.83
2018-11-22T00:34:17.866Z,18.95
2018-11-22T00:36:59.213Z,17.77
2018-11-22T00:39:41.192Z,19.48
2018-11-22T00:42:22.994Z,19.20
2018-11-22T00:45:04.407Z,18.90
2018-11-22T00:47:45.772Z,19.17
2018-11-22T00:50:27.819Z,19.45
2018-11-22T00:53:09.468Z,19.20
2018-11-22T00:55:50.872Z,18.35
2018-11-22T00:58:32.848Z,20.05
2018-11-22T01:01:14.300Z,20.70
2018-11-22T01:03:56.216Z,20.30
2018-11-22T01:06:37.381Z,20.15
2018-11-22T01:09:18.896Z,20.90
2018-11-22T01:12:00.337Z,20.43
2018-11-22T01:14:41.656Z,20.27
2018-11-22T01:17:23.523Z,20.15
2018-11-22T01:20:05.795Z,19.55
2018-11-22T01:22:48.166Z,20.68
2018-11-22T01:25:29.988Z,20.27
2018-11-22T01:28:11.381Z,20.60
2018-11-22T01:30:52.731Z,19.53
2018-11-22T01:33:34.312Z,20.07
2018-11-22T01:36:16.176Z,20.27
2018-11-22T01:38:57.255Z,19.70
2018-11-22T01:41:38.750Z,20.02
2018-11-22T01:44:20.026Z,21.02
2018-11-22T01:47:01.729Z,21.40
2018-11-22T01:49:43.425Z,19.62
2018-11-22T01:52:24.833Z,19.65
2018-11-22T01:55:06.524Z,19.17
2018-11-22T01:57:48.427Z,18.75
2018-11-22T02:00:30.720Z,18.67
2018-11-22T02:03:11.972Z,19.53
2018-11-22T02:05:53.550Z,19.17
2018-11-22T02:08:35.875Z,19.02
2018-11-22T02:11:17.072Z,19.10
2018-11-22T02:13:58.556Z,20.13
2018-11-22T02:16:40.660Z,20.37
2018-11-22T02:19:22.304Z,19.75
2018-11-22T02:22:04.060Z,19.70
2018-11-22T02:24:45.157Z,20.12
2018-11-22T02:27:26.416Z,19.40
2018-11-22T02:30:07.805Z,20.00
2018-11-22T02:32:50.792Z,20.70
2018-11-22T02:35:32.460Z,20.45
2018-11-22T02:38:14.200Z,20.12
2018-11-22T02:40:56.325Z,19.85
2018-11-22T02:43:37.408Z,19.52
2018-11-22T02:46:19.072Z,19.67
2018-11-22T02:49:00.550Z,19.42
2018-11-22T02:51:41.977Z,20.12
2018-11-22T02:54:23.618Z,20.92
2018-11-22T02:57:05.748Z,20.52
2018-11-22T02:59:46.851Z,21.57
2018-11-22T03:02:28.212Z,21.42
2018-11-22T03:05:09.336Z,21.30
2018-11-22T03:07:50.874Z,21.10
2018-11-22T03:10:32.972Z,20.32
2018-11-22T03:13:14.566Z,20.67
2018-11-22T03:15:56.710Z,19.67
2018-11-22T03:18:38.576Z,18.33
2018-11-22T03:21:20.001Z,18.25
2018-11-22T03:24:01.109Z,17.60
2018-11-22T03:26:42.932Z,18.87
2018-11-22T03:29:23.996Z,19.20
2018-11-22T03:32:05.380Z,17.82
2018-11-22T03:34:47.072Z,18.00
2018-11-22T03:37:28.952Z,19.48
2018-11-22T03:40:11.748Z,19.75
2018-11-22T03:42:53.019Z,19.80
2018-11-22T03:45:34.829Z,18.75
2018-11-22T03:48:16.125Z,19.77
2018-11-22T03:50:57.497Z,20.15
2018-11-22T03:53:39.556Z,20.43
2018-11-22T03:56:21.688Z,20.82
2018-11-22T03:59:03.141Z,20.37
2018-11-22T04:01:44.783Z,20.45
2018-11-22T04:04:26.376Z,20.92
2018-11-22T04:07:08.443Z,21.03
2018-11-22T04:09:50.357Z,21.48
2018-11-22T04:12:33.193Z,18.62
2018-11-22T04:15:15.999Z,17.50
2018-11-22T04:17:57.864Z,18.27
2018-11-22T04:20:41.365Z,16.87
2018-11-22T04:23:24.345Z,18.57
2018-11-22T04:26:06.423Z,17.90
2018-11-22T04:28:48.012Z,17.97
2018-11-22T04:31:31.050Z,17.42
2018-11-22T04:34:12.686Z,18.17
2018-11-22T04:36:54.596Z,18.50
2018-11-22T04:39:36.240Z,20.27
2018-11-22T04:42:17.553Z,21.27
2018-11-22T04:44:59.413Z,25.43
2018-11-22T04:47:41.144Z,24.15
2018-11-22T04:50:23.824Z,23.55
2018-11-22T04:53:05.587Z,24.05
2018-11-22T04:55:47.339Z,25.12
2018-11-22T04:58:28.769Z,24.17
2018-11-22T05:01:10.096Z,25.08
2018-11-22T05:03:52.064Z,24.97
2018-11-22T05:06:33.361Z,24.15
2018-11-22T05:09:14.667Z,24.40
2018-11-22T05:11:55.983Z,25.52
2018-11-22T05:14:37.800Z,24.43
2018-11-22T05:17:19.359Z,25.15
2018-11-22T05:20:01.417Z,24.47
2018-11-22T05:22:43.124Z,25.08
2018-11-22T05:25:24.385Z,25.37
2018-11-22T05:28:05.872Z,24.40
2018-11-22T05:30:47.835Z,24.40
2018-11-22T05:33:29.833Z,25.82
2018-11-22T05:36:11.189Z,26.50
2018-11-22T05:38:52.585Z,26.57
2018-11-22T05:41:34.813Z,26.57
2018-11-22T05:44:16.791Z,24.65
2018-11-22T05:46:58.328Z,24.75
2018-11-22T05:49:39.840Z,24.95
2018-11-22T05:52:21.206Z,26.02
2018-11-22T05:55:02.687Z,26.70
2018-11-22T05:57:44.181Z,27.32
2018-11-22T06:00:30.127Z,29.25
2018-11-22T06:03:11.767Z,28.50
2018-11-22T06:05:53.563Z,28.42
2018-11-22T06:08:34.993Z,29.90
2018-11-22T06:11:16.940Z,28.47
2018-11-22T06:13:58.004Z,29.92
2018-11-22T06:16:39.904Z,31.20
2018-11-22T06:19:22.627Z,32.00
2018-11-22T06:22:04.236Z,30.72
2018-11-22T06:24:45.424Z,31.17
2018-11-22T06:27:26.708Z,31.07
2018-11-22T06:30:07.819Z,32.30
2018-11-22T06:32:50.350Z,32.88
2018-11-22T06:35:33.465Z,30.45
2018-11-22T06:38:15.292Z,31.12
2018-11-22T06:40:57.048Z,31.27
2018-11-22T06:43:38.636Z,29.77
2018-11-22T06:46:20.023Z,31.05
2018-11-22T06:49:19.705Z,30.23
2018-11-22T06:51:48.516Z,29.23
2018-11-22T06:54:30.148Z,28.42
2018-11-22T06:57:13.527Z,28.35
2018-11-22T06:59:55.716Z,28.30
2018-11-22T07:02:36.745Z,27.62
2018-11-22T07:05:19.093Z,26.45
2018-11-22T07:08:00.779Z,24.70
2018-11-22T07:10:42.220Z,26.50
2018-11-22T07:13:24.012Z,25.50
2018-11-22T07:16:05.270Z,25.15
2018-11-22T07:18:46.723Z,24.53
2018-11-22T07:21:28.486Z,22.57
2018-11-22T07:24:09.892Z,23.80
2018-11-22T07:26:51.612Z,23.18
2018-11-22T07:29:32.870Z,23.67
2018-11-22T07:32:14.460Z,25.12
2018-11-22T07:35:01.226Z,24.77
2018-11-22T07:37:43.344Z,25.45
2018-11-22T07:40:26.508Z,24.20
2018-11-22T07:43:08.265Z,25.72
2018-11-22T07:45:50.096Z,24.60
2018-11-22T07:48:32.324Z,24.55
2018-11-22T07:51:14.037Z,24.55
2018-11-22T07:53:55.505Z,24.95
2018-11-22T07:56:37.632Z,25.55
2018-11-22T07:59:19.559Z,24.70
2018-11-22T08:02:01.312Z,25.12
2018-11-22T08:04:43.341Z,25.70
2018-11-22T08:07:25.032Z,25.17
2018-11-22T08:10:06.107Z,26.75
2018-11-22T08:12:48.966Z,26.12
2018-11-22T08:15:32.133Z,25.25
2018-11-22T08:18:13.946Z,25.43
2018-11-22T08:20:55.250Z,26.42
2018-11-22T08:23:36.907Z,25.10
2018-11-22T08:26:18.603Z,25.43
2018-11-22T08:29:00.653Z,25.90
2018-11-22T08:31:42.245Z,25.63
2018-11-22T08:34:24.163Z,25.57
2018-11-22T08:37:06.197Z,25.23
2018-11-22T08:39:47.576Z,25.02
2018-11-22T08:42:29.531Z,25.40
2018-11-22T08:45:12.148Z,25.30
2018-11-22T08:47:53.808Z,23.35
2018-11-22T08:50:35.194Z,24.80
2018-11-22T08:53:17.091Z,24.77
2018-11-22T08:55:57.900Z,26.20
2018-11-22T08:58:39.656Z,24.87
2018-11-22T09:01:21.664Z,23.45
2018-11-22T09:04:03.373Z,23.70
2018-11-22T09:06:45.056Z,24.32
2018-11-22T09:09:26.452Z,25.05
2018-11-22T09:12:08.510Z,24.60
2018-11-22T09:14:49.782Z,25.57
2018-11-22T09:17:31.879Z,24.27
2018-11-22T09:20:15.292Z,23.98
2018-11-22T09:22:56.916Z,23.73
2018-11-22T09:25:38.203Z,23.83
2018-11-22T09:28:19.309Z,22.62
2018-11-22T09:31:00.999Z,22.13
2018-11-22T09:33:42.602Z,24.27
2018-11-22T09:36:24.010Z,23.85
2018-11-22T09:39:05.331Z,24.05
2018-11-22T09:41:46.715Z,23.45
2018-11-22T09:44:28.478Z,23.42
2018-11-22T09:47:10.264Z,22.55
2018-11-22T09:49:51.310Z,23.27
2018-11-22T09:52:32.921Z,24.37
2018-11-22T12:17:41.354Z,19.00
2018-11-22T12:20:11.609Z,20.25
2018-11-22T12:22:41.943Z,18.32
2018-11-22T12:25:12.862Z,19.03
2018-11-22T12:27:42.694Z,20.27
2018-11-22T12:30:15.346Z,19.85
2018-11-22T12:33:50.765Z,20.88
2018-11-22T12:36:23.839Z,19.43
2018-11-22T12:38:52.979Z,20.60
2018-11-22T12:41:22.124Z,19.90
2018-11-22T12:43:51.217Z,20.00
2018-11-22T12:46:20.354Z,20.97
2018-11-22T12:48:49.450Z,19.32
2018-11-22T12:51:18.609Z,19.60
2018-11-22T12:53:47.725Z,21.23
2018-11-22T12:56:16.805Z,20.00
2018-11-22T12:58:45.822Z,21.25
2018-11-22T13:01:14.890Z,20.17
2018-11-22T13:03:44.022Z,21.80
2018-11-22T13:06:13.079Z,21.35
2018-11-22T13:08:42.475Z,21.07
2018-11-22T13:11:11.811Z,21.00
2018-11-22T13:13:40.981Z,20.35
2018-11-22T13:16:10.201Z,20.48
2018-11-22T13:18:39.179Z,20.62
2018-11-22T13:21:08.290Z,20.23
2018-11-22T13:23:37.365Z,20.43
2018-11-22T13:26:06.473Z,20.30
2018-11-22T13:28:35.577Z,20.47
2018-11-22T13:31:04.758Z,20.23
2018-11-22T13:33:33.877Z,20.60
2018-11-22T13:36:03.038Z,20.55
2018-11-22T13:38:32.123Z,20.10
2018-11-22T13:41:01.106Z,20.87
2018-11-22T13:43:30.242Z,20.08
2018-11-22T13:45:59.210Z,20.60
2018-11-22T13:48:28.455Z,21.05
2018-11-22T13:50:57.610Z,19.80
2018-11-22T13:53:26.734Z,20.23
2018-11-22T13:55:56.015Z,20.25
2018-11-22T13:58:25.226Z,20.25
2018-11-22T14:00:54.437Z,21.37
2018-11-22T14:03:23.702Z,21.02
2018-11-22T14:05:52.827Z,22.25
2018-11-22T14:08:21.889Z,21.80
2018-11-22T14:10:51.015Z,21.75
2018-11-22T14:13:20.070Z,21.62
2018-11-22T14:15:49.210Z,21.40
2018-11-22T14:18:18.261Z,20.48
2018-11-22T14:20:47.486Z,21.55
2018-11-22T14:23:16.594Z,21.97
2018-11-22T14:25:49.192Z,21.10
2018-11-22T14:28:14.993Z,22.07
2018-11-22T14:30:44.145Z,22.98
2018-11-22T14:33:13.370Z,21.50
2018-11-22T14:35:42.437Z,21.80
2018-11-22T14:38:11.545Z,21.15
2018-11-22T14:40:40.647Z,21.95
2018-11-22T14:43:09.713Z,22.50
2018-11-22T14:45:38.746Z,21.17
2018-11-22T14:48:07.790Z,22.58
2018-11-22T14:50:38.895Z,22.60
2018-11-22T14:53:12.761Z,21.93
2018-11-22T14:55:41.993Z,22.55
2018-11-22T14:58:11.193Z,22.60
2018-11-22T15:00:40.357Z,21.97
2018-11-22T15:03:09.482Z,21.95
2018-11-22T15:05:38.442Z,22.25
2018-11-22T15:08:07.765Z,23.20
2018-11-22T15:10:36.950Z,21.97
2018-11-22T15:13:06.269Z,21.57
2018-11-22T15:15:35.574Z,22.27
2018-11-22T15:18:04.738Z,22.07
2018-11-22T15:20:33.978Z,21.85
2018-11-22T15:23:03.134Z,23.42
2018-11-22T15:25:32.466Z,23.27
2018-11-22T15:28:01.626Z,23.73
2018-11-22T15:30:30.861Z,23.55
2018-11-22T15:33:00.230Z,22.67
2018-11-22T15:35:30.442Z,22.97
2018-11-22T15:37:59.683Z,23.38
2018-11-22T15:40:28.954Z,23.25
2018-11-22T15:43:00.381Z,24.35
2018-11-22T15:45:34.801Z,24.35
2018-11-22T15:47:59.226Z,25.55
2018-11-22T15:50:28.982Z,25.43
2018-11-22T15:52:58.249Z,25.50
2018-11-22T15:55:27.962Z,24.95
2018-11-22T15:57:58.537Z,26.07
2018-11-22T16:00:28.982Z,25.25
2018-11-22T16:02:58.577Z,25.17
2018-11-22T16:05:28.378Z,25.32
2018-11-22T16:07:57.644Z,24.75
2018-11-22T16:10:28.706Z,24.55
2018-11-22T16:13:00.274Z,24.70
2018-11-22T16:15:38.274Z,24.27
2018-11-22T16:18:07.774Z,25.92
2018-11-22T16:20:37.134Z,25.67
2018-11-22T16:23:06.811Z,25.65
2018-11-22T16:25:35.931Z,24.97
2018-11-22T16:28:05.194Z,25.70
2018-11-22T16:30:34.807Z,25.10
2018-11-22T16:33:04.106Z,25.62
2018-11-22T16:35:33.950Z,25.05
2018-11-22T16:38:03.041Z,27.27
2018-11-22T16:40:32.437Z,25.75
2018-11-22T16:43:02.837Z,25.92
2018-11-22T16:45:36.146Z,26.05
2018-11-22T16:48:06.849Z,26.90
2018-11-22T16:50:37.066Z,25.77
2018-11-22T16:53:06.436Z,25.17
2018-11-22T16:55:35.627Z,24.95
2018-11-22T16:58:04.973Z,26.82
2018-11-22T17:00:35.293Z,26.93
2018-11-22T17:03:06.554Z,25.97
2018-11-22T17:05:36.245Z,24.55
2018-11-22T17:08:06.373Z,23.90
2018-11-22T17:10:35.926Z,25.72
2018-11-22T17:13:05.529Z,24.55
2018-11-22T17:15:36.823Z,24.43
2018-11-22T17:18:07.214Z,24.70
2018-11-22T17:20:36.302Z,24.75
2018-11-22T17:23:05.877Z,24.10
2018-11-22T17:25:35.975Z,23.90
2018-11-22T17:28:06.254Z,22.95
2018-11-22T17:30:39.801Z,24.55
2018-11-22T17:33:09.042Z,24.98
2018-11-22T17:35:38.494Z,24.93
2018-11-22T17:38:08.562Z,25.33
2018-11-22T17:40:39.259Z,25.85
2018-11-22T17:43:08.622Z,25.35
2018-11-22T17:45:38.984Z,26.20
2018-11-22T17:48:08.454Z,25.70
2018-11-22T17:50:39.222Z,24.65
2018-11-22T17:53:08.830Z,26.05
2018-11-22T17:55:38.036Z,27.15
2018-11-22T17:58:07.389Z,26.37
2018-11-22T18:00:38.001Z,27.37
2018-11-22T18:03:07.717Z,26.00
2018-11-22T18:05:37.232Z,27.10
2018-11-22T18:08:06.766Z,26.05
2018-11-22T18:10:37.409Z,26.02
2018-11-22T18:13:06.860Z,26.12
2018-11-22T18:15:40.189Z,26.10
2018-11-22T18:18:09.980Z,26.82
2018-11-22T18:20:39.158Z,25.72
2018-11-22T18:23:11.409Z,27.22
2018-11-22T18:25:37.093Z,27.20
2018-11-22T18:28:05.986Z,26.80
2018-11-22T18:30:35.175Z,26.75
2018-11-22T18:33:05.297Z,26.67
2018-11-22T18:35:34.133Z,27.87
2018-11-22T18:38:02.988Z,27.07
2018-11-22T18:40:33.294Z,26.02
2018-11-22T18:43:02.984Z,26.50
2018-11-22T18:45:36.213Z,26.85
2018-11-22T18:48:06.050Z,26.60
2018-11-22T18:50:35.499Z,27.17
2018-11-22T18:53:04.601Z,26.20
2018-11-22T18:55:33.468Z,26.65
2018-11-22T18:58:02.425Z,26.73
2018-11-22T19:00:33.968Z,26.57
2018-11-22T19:03:04.679Z,25.57
2018-11-22T19:05:33.622Z,25.27
2018-11-22T19:08:02.804Z,26.68
2018-11-22T19:10:34.015Z,26.33
2018-11-22T19:13:04.210Z,26.37
2018-11-22T19:15:34.581Z,27.17
2018-11-22T19:18:03.493Z,25.95
2018-11-22T19:20:35.345Z,25.62
2018-11-22T19:23:05.181Z,26.63
2018-11-22T19:25:34.248Z,26.60
2018-11-22T19:28:03.849Z,26.95
2018-11-22T19:30:37.373Z,26.27
2018-11-22T19:33:08.169Z,25.20
2018-11-22T19:35:39.358Z,26.42
2018-11-22T19:38:08.444Z,25.77
2018-11-22T19:40:38.622Z,25.35
2018-11-22T19:43:08.627Z,26.17
2018-11-22T19:45:39.066Z,26.57
2018-11-22T19:48:08.717Z,26.25
2018-11-22T19:50:37.782Z,25.48
2018-11-22T19:53:08.434Z,25.07
2018-11-22T19:55:38.188Z,25.72
2018-11-22T19:58:09.106Z,25.23
2018-11-22T20:00:38.273Z,25.43
2018-11-22T20:03:08.203Z,26.40
2018-11-22T20:05:38.854Z,26.68
2018-11-22T20:08:09.511Z,29.12
2018-11-22T20:10:40.132Z,29.87
2018-11-22T20:13:09.558Z,29.72
2018-11-22T20:15:38.739Z,29.30
2018-11-22T20:18:09.270Z,30.55
2018-11-22T20:20:38.539Z,30.52
2018-11-22T20:23:08.086Z,29.60
2018-11-22T20:25:37.761Z,30.23
2018-11-22T20:28:07.190Z,29.82
2018-11-22T20:30:38.466Z,29.92
2018-11-22T20:33:07.989Z,30.25
2018-11-22T20:35:37.398Z,31.48
2018-11-22T20:38:07.307Z,28.92
2018-11-22T20:40:37.181Z,29.72
2018-11-22T20:43:06.842Z,29.95
2018-11-22T20:45:40.729Z,30.40
2018-11-22T20:48:06.682Z,30.48
2018-11-22T20:50:36.724Z,30.45
2018-11-22T20:53:06.862Z,30.80
2018-11-22T20:55:37.898Z,30.48
2018-11-22T20:58:07.483Z,31.48
2018-11-22T21:00:38.165Z,29.50
2018-11-22T21:03:07.161Z,30.40
2018-11-22T21:05:36.340Z,30.00
2018-11-22T21:08:05.554Z,30.43
2018-11-22T21:10:35.418Z,30.08
2018-11-22T21:13:04.617Z,30.27
2018-11-22T21:15:34.561Z,30.48
2018-11-22T21:18:05.274Z,31.00
2018-11-22T21:20:36.289Z,31.65
2018-11-22T21:23:05.663Z,31.77
2018-11-22T21:25:34.778Z,30.62
2018-11-22T21:28:04.022Z,31.00
2018-11-22T21:30:34.435Z,30.10
2018-11-22T21:33:03.746Z,30.68
2018-11-22T21:35:33.267Z,30.30
2018-11-22T21:38:03.150Z,31.42
2018-11-22T21:40:33.062Z,31.43
2018-11-22T21:43:02.429Z,30.45
2018-11-22T21:45:32.273Z,30.65
2018-11-22T21:48:01.498Z,28.47
2018-11-22T21:50:30.704Z,29.98
2018-11-22T21:52:59.791Z,30.43
2018-11-22T21:55:29.744Z,30.33
2018-11-22T21:58:00.098Z,29.42
2018-11-22T22:00:34.114Z,28.38
2018-11-22T22:03:04.653Z,29.10
2018-11-22T22:05:33.988Z,30.17
2018-11-22T22:08:03.185Z,30.77
2018-11-22T22:10:32.369Z,29.48
2018-11-22T22:13:01.479Z,29.18
2018-11-22T22:15:31.633Z,29.63
2018-11-22T22:18:00.906Z,29.02
2018-11-22T22:20:32.246Z,30.32
2018-11-22T22:23:01.337Z,28.20
2018-11-22T22:25:30.594Z,27.67
2018-11-22T22:28:00.075Z,28.20
2018-11-22T22:30:30.641Z,28.53
2018-11-22T22:33:01.297Z,28.20
2018-11-22T22:35:30.509Z,26.65
2018-11-22T22:37:59.698Z,28.12
2018-11-22T22:40:29.692Z,27.02
2018-11-22T22:42:59.335Z,26.00
2018-11-22T22:45:29.591Z,25.45
2018-11-22T22:47:59.183Z,25.12
2018-11-22T22:50:29.230Z,25.45
2018-11-22T22:52:59.723Z,24.07
2018-11-22T22:55:29.201Z,24.90
2018-11-22T22:57:58.313Z,23.55
2018-11-22T23:00:33.350Z,23.55
2018-11-22T23:03:04.787Z,24.45
2018-11-22T23:05:34.153Z,23.77
2018-11-22T23:08:03.282Z,24.87
2018-11-22T23:10:32.634Z,23.60
2018-11-22T23:13:02.057Z,25.33
2018-11-22T23:15:31.949Z,24.60
2018-11-22T23:18:01.182Z,24.43
2018-11-22T23:22:00.714Z,25.40
2018-11-22T23:24:29.990Z,23.67
2018-11-22T23:26:59.105Z,24.40
2018-11-22T23:29:28.329Z,24.15
2018-11-22T23:31:57.401Z,24.97
2018-11-22T23:34:26.490Z,22.90
2018-11-22T23:36:55.567Z,22.98
2018-11-22T23:39:24.594Z,21.90
2018-11-22T23:41:53.819Z,22.50
2018-11-22T23:44:23.063Z,21.55
2018-11-22T23:46:52.074Z,21.70
2018-11-22T23:49:21.050Z,22.60
2018-11-22T23:51:50.170Z,22.75
2018-11-22T23:54:19.129Z,21.87
2018-11-22T23:56:48.251Z,22.13
2018-11-22T23:59:17.242Z,22.10
